Time;durP1;ratioP1;P1;durP2;ratioP2;P2;SDS_P1;SDS_P2;PMS_P1;PMS_P2;Temp;Humidity;BMP_temperature;BMP_pressure;BME280_temperature;BME280_humidity;BME280_pressure;Samples;Min_cycle;Max_cycle;Signal;HPM_P1;HPM_P2
2024/03/16 00:00:06;;;;;;;0.65;0.50;;;11.20;68.60;;;6.84;100.00;95658.75;4969713;28;20038;-59
2024/03/16 00:02:34;;;;;;;1.00;0.45;;;11.20;68.60;;;6.86;100.00;95657.50;4970141;28;20022;-52
2024/03/16 00:05:00;;;;;;;1.27;0.50;;;11.20;68.70;;;6.88;100.00;95644.78;4970282;28;20045;-55
2024/03/16 00:07:27;;;;;;;0.70;0.55;;;11.30;68.80;;;6.93;100.00;95641.44;4969888;28;20018;-51
2024/03/16 00:09:53;;;;;;;2.35;0.50;;;11.30;68.80;;;6.95;100.00;95634.03;4970243;28;20065;-52
2024/03/16 00:12:19;;;;;;;2.20;0.75;;;11.30;68.80;;;6.95;100.00;95642.00;4970550;28;20472;-52
2024/03/16 00:14:45;;;;;;;2.03;0.80;;;11.30;68.80;;;6.92;100.00;95632.66;4969314;28;20077;-56
2024/03/16 00:17:10;;;;;;;0.73;0.50;;;11.30;68.80;;;6.94;100.00;95632.44;4970320;28;20061;-53
2024/03/16 00:19:37;;;;;;;1.30;0.50;;;11.30;68.70;;;6.91;100.00;95622.34;4969467;28;20072;-55
2024/03/16 00:22:03;;;;;;;2.60;0.63;;;11.30;68.80;;;6.91;100.00;95631.06;4974875;28;20026;-57
2024/03/16 00:24:30;;;;;;;2.45;1.02;;;11.30;68.80;;;6.90;100.00;95632.13;4969780;28;20030;-56
2024/03/16 00:26:57;;;;;;;0.93;0.55;;;11.30;68.90;;;6.90;100.00;95618.88;4969398;28;20397;-58
2024/03/16 00:29:23;;;;;;;2.05;0.50;;;11.30;69.00;;;6.89;100.00;95616.47;4964996;28;20054;-58
2024/03/16 00:31:49;;;;;;;1.38;0.50;;;11.30;69.00;;;6.88;100.00;95623.63;4969341;28;20018;-55
2024/03/16 00:34:15;;;;;;;1.55;0.50;;;11.30;69.10;;;6.89;100.00;95627.88;4969917;28;20092;-58
2024/03/16 00:36:41;;;;;;;0.60;0.57;;;11.30;69.20;;;6.91;100.00;95631.06;4968191;28;20481;-58
2024/03/16 00:39:15;;;;;;;1.35;0.60;;;11.30;69.20;;;6.96;100.00;95635.66;4965461;28;20038;-58
2024/03/16 00:41:44;;;;;;;0.95;0.60;;;11.30;69.20;;;6.94;100.00;95637.75;4973240;28;20026;-58
2024/03/16 00:44:10;;;;;;;0.60;0.43;;;11.40;69.40;;;6.91;100.00;95646.16;4973149;28;20072;-56
2024/03/16 00:46:37;;;;;;;0.70;0.50;;;11.30;69.40;;;6.92;100.00;95643.25;4974261;28;20489;-55
2024/03/16 00:49:02;;;;;;;0.77;0.50;;;11.30;69.50;;;6.93;100.00;95659.97;4972497;28;20026;-58
2024/03/16 00:51:29;;;;;;;1.98;0.60;;;11.30;69.60;;;6.90;100.00;95650.66;4974018;28;20022;-53
2024/03/16 00:53:57;;;;;;;1.08;0.50;;;11.30;69.70;;;6.94;100.00;95653.63;4973436;28;20040;-52
2024/03/16 00:56:23;;;;;;;1.23;0.63;;;11.30;69.70;;;6.92;100.00;95656.50;4972716;28;20018;-53
2024/03/16 00:58:49;;;;;;;0.38;0.38;;;11.30;69.80;;;6.92;100.00;95664.44;4973893;28;20427;-56
2024/03/16 01:01:17;;;;;;;0.63;0.40;;;11.30;69.80;;;6.94;100.00;95674.81;4973792;28;20081;-55
2024/03/16 01:03:42;;;;;;;1.63;0.40;;;11.30;70.50;;;6.90;100.00;95658.63;4973588;28;20503;-56
2024/03/16 01:06:09;;;;;;;1.45;0.40;;;11.30;69.80;;;6.86;100.00;95664.59;4973435;28;20026;-56
2024/03/16 01:08:35;;;;;;;0.45;0.40;;;11.30;70.10;;;6.90;100.00;95663.09;4972424;28;20054;-57
2024/03/16 01:11:01;;;;;;;1.38;0.40;;;11.30;70.10;;;6.88;100.00;95647.44;4973720;28;20033;-55
2024/03/16 01:13:27;;;;;;;1.60;0.40;;;11.30;70.20;;;6.85;100.00;95616.16;4972154;28;20026;-56
2024/03/16 01:15:53;;;;;;;0.57;0.40;;;11.30;70.10;;;6.82;100.00;95576.91;4973264;28;20037;-57
2024/03/16 01:18:18;;;;;;;1.83;0.40;;;11.20;70.10;;;6.78;100.00;95580.28;4973365;28;20018;-53
2024/03/16 01:20:46;;;;;;;1.05;0.50;;;11.30;70.10;;;6.72;100.00;95587.34;4971844;28;20018;-56
2024/03/16 01:23:15;;;;;;;1.23;0.40;;;11.20;70.10;;;6.72;100.00;95596.09;4977098;28;20118;-50
2024/03/16 01:25:41;;;;;;;1.52;0.40;;;11.20;70.40;;;6.75;100.00;95600.09;4972326;28;20026;-54
2024/03/16 01:28:07;;;;;;;1.42;0.50;;;11.20;70.60;;;6.76;100.00;95598.25;4971007;28;20035;-57
2024/03/16 01:30:33;;;;;;;0.47;0.40;;;11.20;70.60;;;6.79;100.00;95592.47;4983918;23;20626;-49
2024/03/16 01:32:59;;;;;;;0.60;0.40;;;11.10;70.50;;;6.79;100.00;95597.78;4963763;28;20070;-49
2024/03/16 01:35:24;;;;;;;1.23;0.40;;;11.20;70.60;;;6.78;100.00;95598.81;4971085;28;20269;-50
2024/03/16 01:37:51;;;;;;;0.40;0.40;;;11.20;70.60;;;6.79;100.00;95590.63;4967922;28;20084;-49
2024/03/16 01:40:24;;;;;;;1.00;0.40;;;11.20;70.70;;;6.82;100.00;95599.94;4964080;28;20081;-51
2024/03/16 01:42:52;;;;;;;0.40;0.30;;;11.20;70.70;;;6.80;100.00;95607.31;4951779;28;20031;-51
2024/03/16 01:45:19;;;;;;;0.43;0.35;;;11.20;70.80;;;6.83;100.00;95612.97;4952219;28;20050;-51
2024/03/16 01:47:47;;;;;;;0.50;0.50;;;11.20;70.80;;;6.81;100.00;95608.94;4936169;28;20117;-53
2024/03/16 01:50:16;;;;;;;1.95;0.40;;;11.20;71.00;;;6.80;100.00;95602.00;4952418;28;20027;-51
2024/03/16 01:52:42;;;;;;;2.30;0.50;;;11.20;71.50;;;6.80;100.00;95586.97;4948826;28;20025;-51
2024/03/16 01:55:09;;;;;;;0.30;0.30;;;11.20;71.30;;;6.81;100.00;95582.47;4952600;28;20026;-53
2024/03/16 01:57:37;;;;;;;0.30;0.30;;;11.20;71.20;;;6.77;100.00;95582.13;4952899;28;20113;-55
2024/03/16 02:00:05;;;;;;;0.75;0.50;;;11.20;71.20;;;6.76;100.00;95588.47;4951889;28;20023;-51
2024/03/16 02:02:38;;;;;;;0.65;0.40;;;11.10;71.20;;;6.74;100.00;95587.91;4952524;28;20019;-52
2024/03/16 02:05:06;;;;;;;0.30;0.30;;;11.10;71.30;;;6.76;100.00;95569.94;4953468;28;20026;-52
2024/03/16 02:07:37;;;;;;;1.77;0.50;;;11.10;71.20;;;6.76;100.00;95563.84;4952666;28;20169;-50
2024/03/16 02:10:08;;;;;;;0.52;0.40;;;11.10;71.30;;;6.69;100.00;95564.78;4953109;28;20039;-50
2024/03/16 02:12:34;;;;;;;0.30;0.30;;;11.10;71.20;;;6.65;100.00;95561.03;4953462;28;20041;-49
2024/03/16 02:15:02;;;;;;;0.68;0.40;;;11.10;71.10;;;6.64;100.00;95570.03;4954806;28;20031;-51
2024/03/16 02:17:28;;;;;;;0.50;0.40;;;11.10;71.10;;;6.62;100.00;95572.09;4953068;28;20025;-52
2024/03/16 02:19:54;;;;;;;1.35;0.40;;;11.10;71.20;;;6.67;100.00;95577.47;4946924;28;20031;-49
2024/03/16 02:22:20;;;;;;;0.40;0.40;;;11.00;71.10;;;6.64;100.00;95579.78;4952975;28;20026;-53
2024/03/16 02:24:46;;;;;;;0.77;0.50;;;11.00;71.10;;;6.66;100.00;95562.63;4950727;28;20137;-52
2024/03/16 02:27:13;;;;;;;0.80;0.50;;;11.10;71.10;;;6.65;100.00;95584.06;4949224;28;20401;-51
2024/03/16 02:29:39;;;;;;;1.45;0.68;;;11.10;71.00;;;6.57;100.00;95584.44;4950710;28;20077;-51
2024/03/16 02:32:08;;;;;;;0.90;0.60;;;11.00;71.00;;;6.56;100.00;95586.28;4950762;28;20054;-53
2024/03/16 02:34:36;;;;;;;2.38;0.45;;;11.00;71.10;;;6.56;100.00;95577.53;4952689;28;20029;-50
2024/03/16 02:37:04;;;;;;;0.63;0.40;;;11.00;71.00;;;6.48;100.00;95581.38;4950028;28;20026;-49
2024/03/16 02:39:31;;;;;;;0.30;0.30;;;11.00;71.00;;;6.48;100.00;95578.72;4967036;28;20026;-48
2024/03/16 02:42:03;;;;;;;0.30;0.30;;;11.00;71.00;;;6.48;100.00;95584.81;4951426;28;20026;-49
2024/03/16 02:44:30;;;;;;;1.13;0.57;;;10.90;71.00;;;6.41;100.00;95581.53;4950924;28;20030;-49
2024/03/16 02:46:58;;;;;;;1.23;0.50;;;10.90;71.00;;;6.42;100.00;95585.75;4951351;28;20085;-52
2024/03/16 02:49:25;;;;;;;1.00;0.70;;;10.90;71.00;;;6.44;100.00;95604.06;4965526;28;20030;-52
2024/03/16 02:51:55;;;;;;;3.78;0.80;;;10.90;71.10;;;6.46;100.00;95597.50;4952462;28;20019;-49
2024/03/16 02:54:21;;;;;;;1.90;0.80;;;10.90;71.10;;;6.45;100.00;95603.81;4950795;28;20048;-56
2024/03/16 02:56:46;;;;;;;2.95;1.10;;;10.90;71.10;;;6.44;100.00;95602.22;4950040;28;20027;-54
2024/03/16 02:59:13;;;;;;;5.55;1.65;;;10.90;71.20;;;6.37;100.00;95612.16;4951930;28;20026;-49
2024/03/16 03:01:39;;;;;;;9.77;2.33;;;10.90;71.30;;;6.38;100.00;95605.00;4950429;28;20106;-54
2024/03/16 03:04:07;;;;;;;7.35;2.00;;;10.80;71.40;;;6.38;100.00;95607.66;4951648;28;20034;-52
2024/03/16 03:06:34;;;;;;;9.90;1.75;;;10.80;71.40;;;6.40;100.00;95609.03;4951214;28;20019;-52
2024/03/16 03:09:00;;;;;;;5.20;1.80;;;10.80;71.40;;;6.40;100.00;95614.31;4947956;28;20036;-52
2024/03/16 03:11:27;;;;;;;10.70;3.00;;;10.80;71.40;;;6.38;100.00;95608.47;4952083;28;20069;-48
2024/03/16 03:13:53;;;;;;;11.15;2.75;;;10.80;72.20;;;6.39;100.00;95610.09;4954378;28;20030;-49
2024/03/16 03:16:20;;;;;;;12.57;3.60;;;10.80;71.50;;;6.43;100.00;95608.56;4952125;28;20085;-48
2024/03/16 03:18:53;;;;;;;10.32;3.40;;;10.80;71.40;;;6.44;100.00;95601.41;4950111;28;20026;-49
2024/03/16 03:21:19;;;;;;;12.40;3.30;;;10.80;71.50;;;6.46;100.00;95610.72;4966493;28;20015;-51
2024/03/16 03:23:46;;;;;;;14.02;4.18;;;10.80;71.40;;;6.45;100.00;95611.75;4951970;28;20389;-51
2024/03/16 03:26:13;;;;;;;14.45;3.47;;;10.80;71.40;;;6.45;100.00;95616.25;4950961;28;20023;-53
2024/03/16 03:28:39;;;;;;;11.75;3.38;;;10.80;71.40;;;6.48;100.00;95613.13;4951071;28;20492;-50
2024/03/16 03:31:10;;;;;;;12.60;3.67;;;10.90;71.50;;;6.47;100.00;95612.31;4946108;28;20068;-57
2024/03/16 03:33:36;;;;;;;12.85;4.43;;;10.90;71.60;;;6.51;100.00;95611.84;4951200;28;20022;-51
2024/03/16 03:36:03;;;;;;;9.23;3.53;;;10.90;71.50;;;6.56;100.00;95617.25;4952122;28;20037;-51
2024/03/16 03:38:30;;;;;;;9.32;3.65;;;10.90;71.50;;;6.57;100.00;95618.84;4950449;28;20048;-53
2024/03/16 03:40:57;;;;;;;14.65;3.95;;;11.00;71.60;;;6.60;100.00;95602.47;4950859;28;20081;-53
2024/03/16 03:43:24;;;;;;;11.10;3.78;;;11.00;71.60;;;6.56;100.00;95604.81;4953177;28;20058;-49
2024/03/16 03:45:52;;;;;;;12.38;4.05;;;11.00;71.50;;;6.56;100.00;95606.66;4951491;28;20492;-55
2024/03/16 03:50:54;;;;;;;8.52;2.95;;;11.00;71.50;;;6.60;100.00;95610.44;4950757;28;20034;-57
2024/03/16 03:53:27;;;;;;;15.02;3.45;;;11.00;71.50;;;6.62;100.00;95621.59;4951201;28;20046;-56
2024/03/16 03:55:54;;;;;;;11.85;3.33;;;11.00;71.50;;;6.60;100.00;95621.00;4951813;28;20106;-48
2024/03/16 03:58:22;;;;;;;11.13;3.50;;;11.00;71.50;;;6.62;100.00;95624.25;4951582;28;20031;-51
2024/03/16 04:00:49;;;;;;;9.88;3.38;;;11.00;71.70;;;6.65;100.00;95627.22;4960052;28;20062;-51
2024/03/16 04:03:16;;;;;;;5.00;2.65;;;11.10;71.80;;;6.68;100.00;95626.72;4951379;28;20018;-51
2024/03/16 04:05:43;;;;;;;8.43;3.20;;;11.10;71.80;;;6.74;100.00;95630.28;4951390;28;20022;-49
2024/03/16 04:08:10;;;;;;;9.48;2.97;;;11.10;71.80;;;6.77;100.00;95631.63;4952312;28;20030;-49
2024/03/16 04:10:38;;;;;;;8.50;2.92;;;11.10;71.80;;;6.79;100.00;95633.00;4950647;28;20018;-53
2024/03/16 04:13:05;;;;;;;5.43;2.80;;;11.20;71.80;;;6.81;100.00;95630.91;4950578;28;20038;-53
2024/03/16 04:15:31;;;;;;;7.63;3.10;;;11.20;71.80;;;6.83;100.00;95630.66;4952450;28;20053;-51
2024/03/16 04:17:57;;;;;;;8.57;2.80;;;11.20;71.70;;;6.84;100.00;95638.38;4955062;28;20105;-51
2024/03/16 04:20:23;;;;;;;8.25;2.80;;;11.20;71.60;;;6.84;100.00;95643.69;4953669;28;20029;-52
2024/03/16 04:22:49;;;;;;;6.70;2.70;;;11.30;71.60;;;6.85;100.00;95641.81;4955138;28;20394;-48
2024/03/16 04:25:16;;;;;;;6.28;2.83;;;11.30;71.60;;;6.85;100.00;95642.63;4954066;28;20026;-52
2024/03/16 04:27:44;;;;;;;6.72;2.58;;;11.30;71.60;;;6.87;100.00;95640.56;4952185;28;20524;-51
2024/03/16 04:30:11;;;;;;;7.82;2.60;;;11.40;71.70;;;6.90;100.00;95641.94;4954250;28;20046;-51
2024/03/16 04:32:38;;;;;;;6.35;2.80;;;11.30;71.50;;;6.90;100.00;95640.06;4953685;28;20473;-49
2024/03/16 04:35:05;;;;;;;5.13;2.50;;;11.40;71.60;;;6.92;100.00;95637.16;4950845;28;20022;-50
2024/03/16 04:37:33;;;;;;;5.90;2.70;;;11.40;71.50;;;6.88;100.00;95641.34;4951327;28;20050;-53
2024/03/16 04:39:59;;;;;;;4.82;2.38;;;11.40;71.50;;;6.89;100.00;95649.06;4954006;28;20109;-53
2024/03/16 04:42:25;;;;;;;5.97;2.08;;;11.40;71.50;;;6.89;100.00;95648.25;4953176;28;20023;-51
2024/03/16 04:44:51;;;;;;;6.70;2.25;;;11.40;71.50;;;6.89;100.00;95646.41;4953485;28;20033;-57
2024/03/16 04:47:18;;;;;;;4.47;2.10;;;11.40;71.50;;;6.87;100.00;95651.16;4953422;28;20377;-51
2024/03/16 04:49:44;;;;;;;4.18;1.90;;;11.40;71.50;;;6.88;100.00;95650.09;4952734;28;20035;-49
2024/03/16 04:52:13;;;;;;;5.22;2.45;;;11.40;71.60;;;6.89;100.00;95658.84;4953301;28;20026;-53
2024/03/16 04:54:40;;;;;;;3.78;2.17;;;11.40;71.70;;;6.89;100.00;95664.97;4954457;28;20496;-53
2024/03/16 04:57:06;;;;;;;6.47;2.72;;;11.40;71.70;;;6.91;100.00;95664.69;4953308;28;20027;-50
2024/03/16 04:59:31;;;;;;;6.03;2.40;;;11.40;71.80;;;6.90;100.00;95653.31;4954087;28;20092;-53
2024/03/16 05:01:57;;;;;;;4.00;2.33;;;11.40;71.90;;;6.91;100.00;95659.41;4952525;28;20023;-54
2024/03/16 05:04:23;;;;;;;7.32;2.38;;;11.40;72.00;;;6.91;100.00;95662.84;4954479;28;20026;-53
2024/03/16 05:06:49;;;;;;;6.13;2.85;;;11.40;72.10;;;6.90;100.00;95673.69;4953321;28;20061;-54
2024/03/16 05:09:15;;;;;;;5.40;2.60;;;11.40;72.20;;;6.93;100.00;95676.66;4968339;28;20034;-51
2024/03/16 05:11:41;;;;;;;6.97;2.25;;;11.40;72.40;;;6.97;100.00;95671.69;4954168;28;20508;-50
2024/03/16 05:14:07;;;;;;;4.20;2.25;;;11.40;72.40;;;6.97;100.00;95673.53;4953354;28;20114;-52
2024/03/16 05:16:41;;;;;;;7.60;2.90;;;11.40;72.40;;;6.96;100.00;95675.41;4954488;28;20023;-54
2024/03/16 05:19:07;;;;;;;3.03;2.40;;;11.40;72.60;;;6.98;100.00;95685.75;4947077;28;20071;-51
2024/03/16 05:21:34;;;;;;;4.05;2.40;;;11.40;72.40;;;6.98;100.00;95678.59;4954062;28;20392;-55
2024/03/16 05:24:01;;;;;;;3.97;2.28;;;11.40;72.60;;;7.02;100.00;95679.75;4954286;28;20057;-53
2024/03/16 05:26:30;;;;;;;4.05;2.00;;;11.40;72.50;;;7.01;100.00;95687.91;4965293;28;20080;-54
2024/03/16 05:28:56;;;;;;;3.25;2.42;;;11.40;72.40;;;7.01;100.00;95690.56;4951632;28;20382;-50
2024/03/16 05:31:22;;;;;;;5.57;2.03;;;11.40;72.40;;;6.96;100.00;95680.69;4953128;28;20043;-52
2024/03/16 05:33:51;;;;;;;2.63;1.70;;;11.50;72.50;;;6.98;100.00;95683.09;4954007;28;20069;-49
2024/03/16 05:36:17;;;;;;;3.15;1.80;;;11.50;72.40;;;6.96;100.00;95688.63;4953754;28;20883;-52
2024/03/16 05:38:45;;;;;;;4.15;1.90;;;11.50;72.60;;;6.99;100.00;95687.34;4952362;28;20677;-55
2024/03/16 05:41:15;;;;;;;2.63;1.70;;;11.50;72.60;;;7.05;100.00;95694.31;4968710;28;20524;-53
2024/03/16 05:43:43;;;;;;;3.67;1.90;;;11.50;72.70;;;7.06;100.00;95709.19;4952730;28;20117;-51
2024/03/16 05:46:13;;;;;;;4.90;1.75;;;11.50;72.60;;;7.07;100.00;95702.84;4952644;28;20113;-50
2024/03/16 05:48:39;;;;;;;2.55;1.40;;;11.50;72.60;;;7.06;100.00;95701.25;4952867;28;20050;-52
2024/03/16 05:51:05;;;;;;;4.05;1.50;;;11.50;72.50;;;7.07;100.00;95713.44;4952667;28;20030;-56
2024/03/16 05:53:31;;;;;;;4.88;1.33;;;11.60;72.60;;;7.08;100.00;95715.88;4953711;28;20117;-52
2024/03/16 05:55:57;;;;;;;3.42;1.50;;;11.50;72.50;;;7.06;100.00;95711.84;4952636;28;20041;-51
2024/03/16 05:58:23;;;;;;;1.95;1.20;;;11.60;72.60;;;7.04;100.00;95719.22;4952974;28;20038;-49
2024/03/16 06:00:49;;;;;;;3.83;1.40;;;11.60;72.60;;;7.06;100.00;95717.94;4952701;28;20022;-57
2024/03/16 06:03:15;;;;;;;2.20;1.20;;;11.60;72.70;;;7.05;100.00;95719.00;4953210;28;20081;-51
2024/03/16 06:05:43;;;;;;;1.85;0.82;;;11.60;72.80;;;7.08;100.00;95720.34;4953363;28;20019;-54
2024/03/16 06:08:10;;;;;;;1.25;0.95;;;11.70;72.90;;;7.10;100.00;95723.56;4951898;28;20083;-53
2024/03/16 06:10:37;;;;;;;2.22;0.93;;;11.70;72.90;;;7.14;100.00;95727.31;4951395;28;20050;-53
2024/03/16 06:13:04;;;;;;;4.07;0.95;;;11.70;72.90;;;7.17;100.00;95727.66;4952082;28;21878;-51
2024/03/16 06:15:30;;;;;;;1.48;1.10;;;11.70;72.90;;;7.19;100.00;95727.44;4953415;28;20042;-50
2024/03/16 06:17:56;;;;;;;2.13;1.20;;;11.70;72.80;;;7.23;100.00;95731.19;4951541;28;20398;-50
2024/03/16 06:20:22;;;;;;;2.08;1.00;;;11.80;72.90;;;7.24;100.00;95732.00;4952445;28;20026;-50
2024/03/16 06:22:48;;;;;;;1.48;1.10;;;11.80;72.80;;;7.27;100.00;95737.66;4951558;28;20022;-51
2024/03/16 06:25:14;;;;;;;2.25;1.00;;;11.80;72.70;;;7.26;100.00;95748.47;4952000;28;20023;-53
2024/03/16 06:27:49;;;;;;;1.00;0.90;;;11.90;72.70;;;7.29;100.00;95743.50;4967456;28;20401;-51
2024/03/16 06:30:19;;;;;;;1.05;0.80;;;12.00;72.70;;;7.26;100.00;95733.38;4951084;28;20081;-54
2024/03/16 06:35:29;;;;;;;2.00;1.00;;;12.10;72.50;;;7.39;100.00;95740.19;4951021;28;20096;-49
2024/03/16 06:37:55;;;;;;;0.95;0.85;;;12.10;72.40;;;7.42;100.00;95747.66;4950700;28;20027;-50
2024/03/16 06:40:21;;;;;;;1.30;1.00;;;12.20;72.40;;;7.41;100.00;95751.38;4953554;28;20117;-51
2024/03/16 06:42:49;;;;;;;1.83;0.93;;;12.10;72.30;;;7.43;100.00;95759.91;4951415;28;20019;-56
2024/03/16 06:45:15;;;;;;;2.08;1.30;;;12.10;72.30;;;7.40;100.00;95761.19;4952531;28;20026;-52
2024/03/16 06:47:41;;;;;;;1.27;0.95;;;12.10;72.30;;;7.43;100.00;95765.19;4951556;28;20029;-53
2024/03/16 06:50:07;;;;;;;2.15;1.17;;;12.20;72.30;;;7.49;100.00;95764.25;4948242;28;20022;-54
2024/03/16 06:52:34;;;;;;;1.70;1.05;;;12.20;72.20;;;7.55;100.00;95763.28;4955685;28;20022;-55
2024/03/16 06:55:00;;;;;;;1.00;0.90;;;12.30;72.20;;;7.57;100.00;95771.78;4951332;28;20027;-54
2024/03/16 06:57:25;;;;;;;7.03;1.33;;;12.40;72.90;;;7.60;100.00;95770.50;4952021;28;20068;-54
2024/03/16 06:59:51;;;;;;;1.52;1.23;;;12.50;72.20;;;7.70;100.00;95775.97;4951533;28;20106;-51
2024/03/16 07:02:18;;;;;;;2.75;1.40;;;12.60;72.20;;;7.76;100.00;95779.50;4951260;28;20026;-56
2024/03/16 07:04:44;;;;;;;1.85;1.25;;;12.70;72.20;;;7.82;100.00;95789.94;4950417;28;20031;-54
2024/03/16 07:07:10;;;;;;;1.92;1.10;;;12.80;72.10;;;7.88;100.00;95783.66;4951793;28;20029;-50
2024/03/16 07:09:36;;;;;;;4.38;1.60;;;12.90;72.00;;;7.93;100.00;95779.47;4951941;28;20983;-51
2024/03/16 07:12:02;;;;;;;3.67;1.70;;;13.10;71.90;;;8.07;100.00;95786.06;4951449;28;20034;-51
2024/03/16 07:14:27;;;;;;;3.88;1.67;;;13.20;71.80;;;8.29;100.00;95788.75;4952691;28;20029;-52
2024/03/16 07:16:54;;;;;;;2.70;1.70;;;13.50;71.70;;;8.58;100.00;95782.25;4951971;28;20381;-49
2024/03/16 07:19:23;;;;;;;2.40;1.92;;;13.80;71.60;;;8.88;100.00;95791.66;4950055;28;20113;-52
2024/03/16 07:21:53;;;;;;;2.00;1.70;;;14.20;71.60;;;9.08;100.00;95798.25;4951315;28;20019;-51
2024/03/16 07:24:18;;;;;;;2.97;2.15;;;14.50;71.50;;;9.20;100.00;95802.38;4966984;28;20030;-51
2024/03/16 07:26:45;;;;;;;3.05;1.67;;;14.60;71.30;;;9.27;100.00;95802.16;4951023;28;20019;-51
2024/03/16 07:29:11;;;;;;;4.15;1.48;;;14.60;71.10;;;9.23;100.00;95809.84;4950721;28;20520;-55
2024/03/16 07:31:37;;;;;;;3.92;1.50;;;14.60;70.90;;;9.26;100.00;95813.88;4949516;28;20493;-54
2024/03/16 07:34:04;;;;;;;3.03;1.40;;;14.50;70.70;;;9.19;100.00;95810.59;4951415;28;20353;-55
2024/03/16 07:36:31;;;;;;;2.60;1.40;;;14.40;70.60;;;9.21;100.00;95821.78;4951879;28;20081;-52
2024/03/16 07:38:57;;;;;;;3.00;1.50;;;14.30;70.60;;;9.21;100.00;95827.91;4950020;28;20370;-53
2024/03/16 07:41:23;;;;;;;7.03;1.60;;;14.30;70.60;;;9.18;100.00;95822.28;4951375;28;20025;-50
2024/03/16 07:43:51;;;;;;;2.03;1.60;;;14.20;70.50;;;9.12;100.00;95820.59;4948739;28;20034;-51
2024/03/16 07:46:19;;;;;;;5.82;1.85;;;14.10;70.40;;;9.16;100.00;95827.06;4951057;28;20086;-57
2024/03/16 07:48:45;;;;;;;2.15;1.63;;;14.00;70.40;;;9.15;100.00;95817.44;4951550;28;20105;-56
2024/03/16 07:51:14;;;;;;;3.65;1.80;;;14.00;70.50;;;9.10;100.00;95826.19;4949126;28;20448;-54
2024/03/16 07:53:40;;;;;;;5.75;2.00;;;14.00;70.60;;;9.15;100.00;95828.91;4965870;28;20057;-53
2024/03/16 07:56:09;;;;;;;6.32;1.25;;;14.00;70.60;;;9.11;100.00;95829.63;4948638;28;20030;-52
2024/03/16 07:58:37;;;;;;;2.42;1.40;;;14.10;70.60;;;9.08;100.00;95830.94;4965181;28;20038;-58
2024/03/16 08:01:09;;;;;;;2.47;1.27;;;14.10;70.60;;;9.07;100.00;95839.16;4950273;28;20023;-54
2024/03/16 08:03:35;;;;;;;3.70;1.30;;;14.00;70.50;;;9.03;100.00;95844.19;4964763;28;20050;-56
2024/03/16 08:06:07;;;;;;;2.80;1.30;;;14.00;70.50;;;8.94;100.00;95850.97;4951204;28;20062;-53
2024/03/16 08:08:33;;;;;;;4.80;1.35;;;13.90;70.40;;;9.01;100.00;95844.41;4948930;29;20026;-54
2024/03/16 08:10:59;;;;;;;3.13;1.33;;;13.90;70.50;;;8.98;100.00;95844.91;4951584;28;20022;-54
2024/03/16 08:13:25;;;;;;;6.82;1.73;;;13.80;70.60;;;9.06;100.00;95859.63;4950080;28;20030;-51
2024/03/16 08:15:52;;;;;;;3.65;1.50;;;13.80;70.70;;;9.01;100.00;95849.72;4951397;28;20054;-51
2024/03/16 08:18:18;;;;;;;6.57;1.40;;;13.80;70.70;;;8.92;100.00;95853.88;4950801;28;20042;-50
2024/03/16 08:20:44;;;;;;;2.55;1.10;;;13.80;70.60;;;8.90;100.00;95863.13;4948535;28;20381;-56
2024/03/16 08:23:10;;;;;;;2.00;1.10;;;13.80;70.70;;;8.96;100.00;95868.28;4950021;28;20061;-57
2024/03/16 08:25:36;;;;;;;6.18;1.40;;;13.80;70.80;;;8.90;100.00;95869.28;4951166;28;20055;-54
2024/03/16 08:28:02;;;;;;;4.47;1.40;;;13.80;70.80;;;8.97;100.00;95871.75;4950859;28;20209;-54
2024/03/16 08:30:28;;;;;;;2.75;1.02;;;13.90;70.80;;;8.98;100.00;95868.81;4950400;28;20051;-54
2024/03/16 08:32:54;;;;;;;4.40;1.08;;;13.90;70.70;;;8.90;100.00;95863.97;4948854;28;20182;-54
2024/03/16 08:35:20;;;;;;;5.07;1.20;;;13.90;70.60;;;8.90;100.00;95861.31;4950784;28;20289;-53
2024/03/16 08:37:46;;;;;;;3.40;1.08;;;13.90;70.50;;;8.99;100.00;95867.78;4949740;28;20026;-52
2024/03/16 08:40:12;;;;;;;5.90;1.65;;;14.00;70.50;;;9.07;100.00;95865.75;4950797;28;20030;-51
2024/03/16 08:42:40;;;;;;;7.28;1.25;;;14.10;70.40;;;9.22;100.00;95869.38;4950779;28;20397;-52
2024/03/16 08:45:07;;;;;;;2.20;1.10;;;14.30;70.50;;;9.37;100.00;95879.38;4964581;28;20027;-50
2024/03/16 08:47:37;;;;;;;2.80;0.90;;;14.50;70.40;;;9.38;100.00;95870.34;4951002;28;20022;-53
2024/03/16 08:50:04;;;;;;;3.00;1.20;;;14.60;70.30;;;9.43;100.00;95875.75;4951894;28;20126;-52
2024/03/16 08:52:31;;;;;;;2.75;1.08;;;14.70;70.00;;;9.40;100.00;95870.91;4965855;28;20027;-51
2024/03/16 08:54:57;;;;;;;2.83;0.82;;;14.70;69.60;;;9.48;100.00;95872.31;4949635;28;20022;-52
2024/03/16 08:57:23;;;;;;;5.22;0.98;;;14.80;69.50;;;9.50;100.00;95871.00;4949380;28;20039;-50
2024/03/16 08:59:51;;;;;;;3.47;0.90;;;14.90;69.50;;;9.58;100.00;95874.28;4950572;28;20037;-52
2024/03/16 09:02:20;;;;;;;3.35;1.00;;;15.00;69.30;;;9.96;100.00;95868.78;4950780;28;20023;-57
2024/03/16 09:04:52;;;;;;;4.05;0.80;;;15.50;69.20;;;10.26;100.00;95877.28;4953883;28;20031;-54
2024/03/16 09:07:19;;;;;;;1.90;1.00;;;15.90;68.80;;;10.65;100.00;95880.47;4952717;28;20539;-56
2024/03/16 09:09:46;;;;;;;5.95;1.20;;;16.30;68.40;;;10.78;100.00;95877.38;4953672;28;20041;-54
2024/03/16 09:12:11;;;;;;;3.85;1.42;;;16.50;67.90;;;10.78;100.00;95879.22;4954127;28;20030;-51
2024/03/16 09:14:37;;;;;;;2.53;0.90;;;16.60;67.20;;;10.51;100.00;95890.78;4953092;28;20493;-52
2024/03/16 09:17:05;;;;;;;2.67;1.10;;;16.60;66.00;;;10.52;100.00;95883.59;4954170;28;20033;-58
2024/03/16 09:19:32;;;;;;;2.05;1.10;;;16.50;65.40;;;10.61;100.00;95892.72;4952585;28;20117;-52
2024/03/16 09:21:58;;;;;;;6.03;1.05;;;16.60;65.10;;;10.80;100.00;95885.91;4954035;28;20429;-57
2024/03/16 09:24:24;;;;;;;3.35;1.20;;;16.70;64.80;;;11.16;100.00;95898.63;4953831;28;20031;-52
2024/03/16 09:26:50;;;;;;;2.90;1.00;;;17.10;64.70;;;11.47;97.90;95895.00;4951972;28;20092;-55
2024/03/16 09:29:16;;;;;;;3.17;1.00;;;17.50;64.40;;;11.81;98.07;95900.69;4968142;28;20062;-56
2024/03/16 09:31:42;;;;;;;2.35;1.30;;;18.00;64.00;;;11.98;93.12;95891.66;4951422;28;20050;-53
2024/03/16 09:34:09;;;;;;;6.60;1.38;;;18.40;62.70;;;12.33;93.27;95896.22;4968685;28;20022;-53
2024/03/16 09:36:37;;;;;;;5.68;1.50;;;18.70;61.90;;;12.49;89.10;95884.44;4953462;28;20437;-55
2024/03/16 09:39:13;;;;;;;2.40;1.10;;;19.00;61.00;;;12.37;87.66;95889.25;4952638;28;20035;-53
2024/03/16 09:41:39;;;;;;;2.85;1.05;;;19.10;60.00;;;12.10;87.31;95888.75;4953683;28;20081;-53
2024/03/16 09:44:13;;;;;;;3.40;1.05;;;19.10;58.70;;;12.27;87.70;95900.75;4952903;28;20035;-54
2024/03/16 09:46:43;;;;;;;4.28;1.10;;;19.20;58.20;;;12.27;88.26;95886.59;4952297;28;20499;-52
2024/03/16 09:49:15;;;;;;;9.80;3.05;;;19.10;58.00;;;12.39;88.80;95889.81;4952051;28;20026;-51
2024/03/16 09:51:41;;;;;;;3.22;1.10;;;19.10;58.20;;;12.38;84.95;95896.22;4950839;28;20018;-51
2024/03/16 09:54:10;;;;;;;3.03;1.33;;;19.00;57.80;;;12.25;85.93;95889.56;4952313;28;20027;-51
2024/03/16 09:56:37;;;;;;;2.80;1.00;;;19.10;57.20;;;12.69;85.78;95894.31;4952359;28;20050;-53
2024/03/16 09:59:20;;;;;;;3.10;1.40;;;19.40;57.30;;;12.82;83.53;95894.84;4949773;28;20034;-50
2024/03/16 10:01:48;;;;;;;2.67;0.80;;;19.60;56.60;;;12.89;82.48;95898.03;4963336;28;20034;-53
2024/03/16 10:04:14;;;;;;;3.05;1.10;;;19.70;55.90;;;12.92;81.67;95892.13;4953529;28;20033;-51
2024/03/16 10:06:39;;;;;;;4.97;1.17;;;19.90;55.10;;;13.09;79.13;95897.94;4953240;28;20028;-52
2024/03/16 10:09:15;;;;;;;1.88;1.02;;;20.00;54.50;;;13.23;80.53;95900.06;4952090;28;20386;-57
2024/03/16 10:11:45;;;;;;;3.90;0.98;;;20.20;54.30;;;13.29;75.83;95899.00;4952923;28;20478;-51
2024/03/16 10:14:13;;;;;;;5.50;1.20;;;20.20;53.60;;;13.27;78.13;95909.16;4952262;28;20019;-51
2024/03/16 10:16:42;;;;;;;4.40;1.13;;;20.20;53.30;;;13.46;75.70;95901.34;4955978;28;20022;-54
2024/03/16 10:19:08;;;;;;;3.65;1.60;;;20.30;53.20;;;13.97;77.64;95895.69;4950811;28;20038;-54
2024/03/16 10:21:34;;;;;;;1.17;1.02;;;20.50;53.50;;;14.11;76.50;95904.72;4952697;28;20069;-52